sensor_id;sensor_type;location;lat;lon;timestamp;P1;durP1;ratioP1;P2;durP2;ratioP2
70150;SDS011;57517;43.562;19.540;2022-12-24T00:01:07;85.70;;;55.78;;
70150;SDS011;57517;43.562;19.540;2022-12-24T00:03:33;79.13;;;55.05;;
70150;SDS011;57517;43.562;19.540;2022-12-24T00:06:04;86.53;;;54.50;;
70150;SDS011;57517;43.562;19.540;2022-12-24T00:08:37;85.57;;;52.25;;
70150;SDS011;57517;43.562;19.540;2022-12-24T00:11:05;99.15;;;55.25;;
70150;SDS011;57517;43.562;19.540;2022-12-24T00:13:31;84.07;;;51.42;;
70150;SDS011;57517;43.562;19.540;2022-12-24T00:15:56;79.82;;;51.65;;
70150;SDS011;57517;43.562;19.540;2022-12-24T00:18:22;93.85;;;51.80;;
70150;SDS011;57517;43.562;19.540;2022-12-24T00:20:48;105.60;;;55.15;;
70150;SDS011;57517;43.562;19.540;2022-12-24T00:23:15;89.80;;;53.15;;
70150;SDS011;57517;43.562;19.540;2022-12-24T00:25:41;75.22;;;50.75;;
70150;SDS011;57517;43.562;19.540;2022-12-24T00:28:07;95.80;;;55.97;;
70150;SDS011;57517;43.562;19.540;2022-12-24T00:30:33;85.80;;;51.72;;
70150;SDS011;57517;43.562;19.540;2022-12-24T00:32:59;80.50;;;50.72;;
70150;SDS011;57517;43.562;19.540;2022-12-24T00:35:24;86.25;;;52.42;;
70150;SDS011;57517;43.562;19.540;2022-12-24T00:37:50;107.57;;;54.55;;
70150;SDS011;57517;43.562;19.540;2022-12-24T00:40:16;89.80;;;47.63;;
70150;SDS011;57517;43.562;19.540;2022-12-24T00:42:42;99.30;;;50.33;;
70150;SDS011;57517;43.562;19.540;2022-12-24T00:45:09;122.10;;;49.15;;
70150;SDS011;57517;43.562;19.540;2022-12-24T00:47:36;104.25;;;49.25;;
70150;SDS011;57517;43.562;19.540;2022-12-24T00:50:02;86.95;;;46.80;;
70150;SDS011;57517;43.562;19.540;2022-12-24T00:52:29;85.90;;;48.90;;
70150;SDS011;57517;43.562;19.540;2022-12-24T00:54:55;76.05;;;46.53;;
70150;SDS011;57517;43.562;19.540;2022-12-24T00:57:20;85.68;;;50.05;;
70150;SDS011;57517;43.562;19.540;2022-12-24T00:59:46;139.13;;;66.03;;
70150;SDS011;57517;43.562;19.540;2022-12-24T01:02:12;83.05;;;51.20;;
70150;SDS011;57517;43.562;19.540;2022-12-24T01:04:37;136.32;;;63.53;;
70150;SDS011;57517;43.562;19.540;2022-12-24T01:07:22;76.90;;;49.90;;
70150;SDS011;57517;43.562;19.540;2022-12-24T01:09:48;76.82;;;48.15;;
70150;SDS011;57517;43.562;19.540;2022-12-24T01:12:13;65.88;;;44.97;;
70150;SDS011;57517;43.562;19.540;2022-12-24T01:14:39;64.90;;;43.97;;
70150;SDS011;57517;43.562;19.540;2022-12-24T01:17:05;64.07;;;40.67;;
70150;SDS011;57517;43.562;19.540;2022-12-24T01:19:31;57.03;;;40.28;;
70150;SDS011;57517;43.562;19.540;2022-12-24T01:21:57;59.00;;;38.90;;
70150;SDS011;57517;43.562;19.540;2022-12-24T01:24:23;56.40;;;37.80;;
70150;SDS011;57517;43.562;19.540;2022-12-24T01:26:48;60.17;;;38.50;;
70150;SDS011;57517;43.562;19.540;2022-12-24T01:29:14;58.55;;;39.08;;
70150;SDS011;57517;43.562;19.540;2022-12-24T01:31:40;50.72;;;36.08;;
70150;SDS011;57517;43.562;19.540;2022-12-24T01:34:06;59.15;;;40.05;;
70150;SDS011;57517;43.562;19.540;2022-12-24T01:36:31;64.15;;;40.65;;
70150;SDS011;57517;43.562;19.540;2022-12-24T01:38:57;57.05;;;40.83;;
70150;SDS011;57517;43.562;19.540;2022-12-24T01:41:23;53.08;;;38.38;;
70150;SDS011;57517;43.562;19.540;2022-12-24T01:46:46;60.05;;;42.60;;
70150;SDS011;57517;43.562;19.540;2022-12-24T01:49:15;58.75;;;39.28;;
70150;SDS011;57517;43.562;19.540;2022-12-24T01:51:47;57.35;;;38.92;;
70150;SDS011;57517;43.562;19.540;2022-12-24T01:56:53;44.53;;;34.70;;
70150;SDS011;57517;43.562;19.540;2022-12-24T01:59:22;49.90;;;35.50;;
70150;SDS011;57517;43.562;19.540;2022-12-24T02:01:48;50.13;;;35.17;;
70150;SDS011;57517;43.562;19.540;2022-12-24T02:04:16;50.45;;;34.30;;
70150;SDS011;57517;43.562;19.540;2022-12-24T02:09:36;52.55;;;35.25;;
70150;SDS011;57517;43.562;19.540;2022-12-24T02:12:03;54.45;;;35.30;;
70150;SDS011;57517;43.562;19.540;2022-12-24T02:14:30;51.35;;;35.33;;
70150;SDS011;57517;43.562;19.540;2022-12-24T02:17:01;53.72;;;38.40;;
70150;SDS011;57517;43.562;19.540;2022-12-24T02:30:30;52.37;;;38.00;;
70150;SDS011;57517;43.562;19.540;2022-12-24T02:33:03;55.53;;;36.65;;
70150;SDS011;57517;43.562;19.540;2022-12-24T02:35:58;57.30;;;39.60;;
70150;SDS011;57517;43.562;19.540;2022-12-24T02:41:08;53.10;;;36.92;;
70150;SDS011;57517;43.562;19.540;2022-12-24T02:43:39;53.08;;;35.50;;
70150;SDS011;57517;43.562;19.540;2022-12-24T02:46:16;53.85;;;36.78;;
70150;SDS011;57517;43.562;19.540;2022-12-24T02:48:46;53.67;;;37.60;;
70150;SDS011;57517;43.562;19.540;2022-12-24T02:51:13;60.75;;;40.72;;
70150;SDS011;57517;43.562;19.540;2022-12-24T02:53:40;54.25;;;38.95;;
70150;SDS011;57517;43.562;19.540;2022-12-24T03:13:15;55.30;;;35.55;;
70150;SDS011;57517;43.562;19.540;2022-12-24T03:15:42;55.97;;;38.13;;
70150;SDS011;57517;43.562;19.540;2022-12-24T03:18:10;53.55;;;36.03;;
70150;SDS011;57517;43.562;19.540;2022-12-24T03:20:41;54.97;;;37.30;;
70150;SDS011;57517;43.562;19.540;2022-12-24T03:23:10;48.30;;;34.95;;
70150;SDS011;57517;43.562;19.540;2022-12-24T03:25:37;53.63;;;35.15;;
70150;SDS011;57517;43.562;19.540;2022-12-24T03:28:06;53.08;;;33.97;;
70150;SDS011;57517;43.562;19.540;2022-12-24T03:30:34;44.92;;;32.03;;
70150;SDS011;57517;43.562;19.540;2022-12-24T03:33:00;46.60;;;34.05;;
70150;SDS011;57517;43.562;19.540;2022-12-24T03:35:26;47.38;;;35.88;;
70150;SDS011;57517;43.562;19.540;2022-12-24T03:37:51;50.03;;;31.70;;
70150;SDS011;57517;43.562;19.540;2022-12-24T03:40:17;49.47;;;32.42;;
70150;SDS011;57517;43.562;19.540;2022-12-24T03:42:43;43.33;;;30.13;;
70150;SDS011;57517;43.562;19.540;2022-12-24T03:45:09;42.72;;;28.40;;
70150;SDS011;57517;43.562;19.540;2022-12-24T03:47:35;41.63;;;28.63;;
70150;SDS011;57517;43.562;19.540;2022-12-24T03:50:00;42.13;;;29.38;;
70150;SDS011;57517;43.562;19.540;2022-12-24T03:52:27;48.58;;;32.72;;
70150;SDS011;57517;43.562;19.540;2022-12-24T03:54:52;48.50;;;34.85;;
70150;SDS011;57517;43.562;19.540;2022-12-24T03:57:18;49.78;;;35.90;;
70150;SDS011;57517;43.562;19.540;2022-12-24T03:59:44;54.50;;;36.55;;
70150;SDS011;57517;43.562;19.540;2022-12-24T04:02:09;50.78;;;35.85;;
70150;SDS011;57517;43.562;19.540;2022-12-24T04:04:35;53.03;;;38.65;;
70150;SDS011;57517;43.562;19.540;2022-12-24T04:07:02;54.47;;;36.65;;
70150;SDS011;57517;43.562;19.540;2022-12-24T04:09:28;55.72;;;35.10;;
70150;SDS011;57517;43.562;19.540;2022-12-24T04:11:54;51.60;;;35.33;;
70150;SDS011;57517;43.562;19.540;2022-12-24T04:14:19;53.08;;;36.75;;
70150;SDS011;57517;43.562;19.540;2022-12-24T04:16:45;55.03;;;35.95;;
70150;SDS011;57517;43.562;19.540;2022-12-24T04:19:11;58.53;;;36.80;;
70150;SDS011;57517;43.562;19.540;2022-12-24T04:21:36;48.72;;;34.08;;
70150;SDS011;57517;43.562;19.540;2022-12-24T04:24:02;45.28;;;30.80;;
70150;SDS011;57517;43.562;19.540;2022-12-24T04:26:28;41.90;;;30.83;;
70150;SDS011;57517;43.562;19.540;2022-12-24T04:28:54;46.95;;;31.10;;
70150;SDS011;57517;43.562;19.540;2022-12-24T04:31:20;40.42;;;29.95;;
70150;SDS011;57517;43.562;19.540;2022-12-24T04:33:46;44.58;;;29.95;;
70150;SDS011;57517;43.562;19.540;2022-12-24T04:36:13;44.90;;;32.97;;
70150;SDS011;57517;43.562;19.540;2022-12-24T04:38:41;43.33;;;31.45;;
70150;SDS011;57517;43.562;19.540;2022-12-24T04:41:09;41.28;;;29.70;;
70150;SDS011;57517;43.562;19.540;2022-12-24T04:43:37;49.60;;;33.10;;
70150;SDS011;57517;43.562;19.540;2022-12-24T04:46:13;44.28;;;30.90;;
70150;SDS011;57517;43.562;19.540;2022-12-24T04:48:42;45.47;;;31.58;;
70150;SDS011;57517;43.562;19.540;2022-12-24T04:51:09;48.47;;;32.72;;
70150;SDS011;57517;43.562;19.540;2022-12-24T04:53:36;46.53;;;32.85;;
70150;SDS011;57517;43.562;19.540;2022-12-24T04:56:02;43.70;;;31.33;;
70150;SDS011;57517;43.562;19.540;2022-12-24T04:58:31;45.13;;;31.02;;
70150;SDS011;57517;43.562;19.540;2022-12-24T05:01:01;53.40;;;34.20;;
70150;SDS011;57517;43.562;19.540;2022-12-24T05:03:30;47.97;;;32.42;;
70150;SDS011;57517;43.562;19.540;2022-12-24T05:06:00;49.78;;;34.17;;
70150;SDS011;57517;43.562;19.540;2022-12-24T05:08:27;50.85;;;34.63;;
70150;SDS011;57517;43.562;19.540;2022-12-24T05:10:56;53.00;;;35.05;;
70150;SDS011;57517;43.562;19.540;2022-12-24T05:13:22;53.28;;;35.15;;
70150;SDS011;57517;43.562;19.540;2022-12-24T05:15:48;49.22;;;33.13;;
70150;SDS011;57517;43.562;19.540;2022-12-24T05:18:14;50.95;;;32.65;;
70150;SDS011;57517;43.562;19.540;2022-12-24T05:20:40;50.28;;;36.22;;
70150;SDS011;57517;43.562;19.540;2022-12-24T05:23:06;52.20;;;34.17;;
70150;SDS011;57517;43.562;19.540;2022-12-24T05:25:52;49.92;;;31.08;;
70150;SDS011;57517;43.562;19.540;2022-12-24T05:28:36;45.53;;;30.33;;
70150;SDS011;57517;43.562;19.540;2022-12-24T05:31:02;42.63;;;30.98;;
70150;SDS011;57517;43.562;19.540;2022-12-24T05:33:27;40.92;;;30.50;;
70150;SDS011;57517;43.562;19.540;2022-12-24T05:35:53;52.28;;;35.80;;
70150;SDS011;57517;43.562;19.540;2022-12-24T05:38:19;47.95;;;33.05;;
70150;SDS011;57517;43.562;19.540;2022-12-24T05:40:45;45.83;;;32.50;;
70150;SDS011;57517;43.562;19.540;2022-12-24T05:43:11;49.58;;;34.90;;
70150;SDS011;57517;43.562;19.540;2022-12-24T05:45:37;48.45;;;32.60;;
70150;SDS011;57517;43.562;19.540;2022-12-24T05:48:02;44.45;;;30.13;;
70150;SDS011;57517;43.562;19.540;2022-12-24T05:50:28;42.42;;;28.90;;
70150;SDS011;57517;43.562;19.540;2022-12-24T05:52:54;41.33;;;28.67;;
70150;SDS011;57517;43.562;19.540;2022-12-24T05:55:20;43.35;;;33.25;;
70150;SDS011;57517;43.562;19.540;2022-12-24T05:57:45;45.33;;;33.95;;
70150;SDS011;57517;43.562;19.540;2022-12-24T06:00:11;53.88;;;35.47;;
70150;SDS011;57517;43.562;19.540;2022-12-24T06:02:37;50.03;;;31.50;;
70150;SDS011;57517;43.562;19.540;2022-12-24T06:05:03;38.30;;;29.45;;
70150;SDS011;57517;43.562;19.540;2022-12-24T06:07:29;48.97;;;31.45;;
70150;SDS011;57517;43.562;19.540;2022-12-24T06:09:54;41.67;;;30.35;;
70150;SDS011;57517;43.562;19.540;2022-12-24T06:12:20;41.60;;;30.77;;
70150;SDS011;57517;43.562;19.540;2022-12-24T06:14:46;42.53;;;31.15;;
70150;SDS011;57517;43.562;19.540;2022-12-24T06:17:11;43.50;;;31.55;;
70150;SDS011;57517;43.562;19.540;2022-12-24T06:19:37;42.72;;;29.52;;
70150;SDS011;57517;43.562;19.540;2022-12-24T06:22:03;42.83;;;30.55;;
70150;SDS011;57517;43.562;19.540;2022-12-24T06:24:28;43.40;;;31.50;;
70150;SDS011;57517;43.562;19.540;2022-12-24T06:26:54;51.78;;;33.08;;
70150;SDS011;57517;43.562;19.540;2022-12-24T06:29:20;48.30;;;34.20;;
70150;SDS011;57517;43.562;19.540;2022-12-24T06:31:45;45.88;;;31.42;;
70150;SDS011;57517;43.562;19.540;2022-12-24T06:34:11;46.17;;;32.05;;
70150;SDS011;57517;43.562;19.540;2022-12-24T06:36:37;50.25;;;31.27;;
70150;SDS011;57517;43.562;19.540;2022-12-24T06:39:02;51.58;;;31.42;;
70150;SDS011;57517;43.562;19.540;2022-12-24T06:41:28;48.72;;;32.78;;
70150;SDS011;57517;43.562;19.540;2022-12-24T06:43:54;43.97;;;30.55;;
70150;SDS011;57517;43.562;19.540;2022-12-24T06:46:20;44.08;;;31.38;;
70150;SDS011;57517;43.562;19.540;2022-12-24T06:48:46;45.55;;;32.45;;
70150;SDS011;57517;43.562;19.540;2022-12-24T06:51:13;49.90;;;31.33;;
70150;SDS011;57517;43.562;19.540;2022-12-24T06:53:41;43.75;;;32.22;;
70150;SDS011;57517;43.562;19.540;2022-12-24T06:56:07;47.15;;;31.25;;
70150;SDS011;57517;43.562;19.540;2022-12-24T06:58:35;253.52;;;188.23;;
70150;SDS011;57517;43.562;19.540;2022-12-24T07:01:05;74.38;;;53.17;;
70150;SDS011;57517;43.562;19.540;2022-12-24T07:03:32;49.45;;;37.35;;
70150;SDS011;57517;43.562;19.540;2022-12-24T07:05:59;50.05;;;35.85;;
70150;SDS011;57517;43.562;19.540;2022-12-24T07:08:24;48.45;;;33.08;;
70150;SDS011;57517;43.562;19.540;2022-12-24T07:10:51;37.42;;;27.98;;
70150;SDS011;57517;43.562;19.540;2022-12-24T07:13:17;42.17;;;32.30;;
70150;SDS011;57517;43.562;19.540;2022-12-24T07:15:43;46.88;;;31.25;;
70150;SDS011;57517;43.562;19.540;2022-12-24T07:18:09;47.75;;;35.53;;
70150;SDS011;57517;43.562;19.540;2022-12-24T07:20:36;46.20;;;31.58;;
70150;SDS011;57517;43.562;19.540;2022-12-24T07:23:02;44.60;;;31.88;;
70150;SDS011;57517;43.562;19.540;2022-12-24T07:25:28;49.72;;;38.85;;
70150;SDS011;57517;43.562;19.540;2022-12-24T07:27:54;71.80;;;49.13;;
70150;SDS011;57517;43.562;19.540;2022-12-24T07:30:20;69.28;;;45.53;;
70150;SDS011;57517;43.562;19.540;2022-12-24T07:32:47;65.82;;;45.30;;
70150;SDS011;57517;43.562;19.540;2022-12-24T07:35:12;56.08;;;39.58;;
70150;SDS011;57517;43.562;19.540;2022-12-24T07:37:38;51.65;;;38.08;;
70150;SDS011;57517;43.562;19.540;2022-12-24T07:40:04;49.40;;;36.78;;
70150;SDS011;57517;43.562;19.540;2022-12-24T07:42:32;53.50;;;37.30;;
70150;SDS011;57517;43.562;19.540;2022-12-24T07:44:58;57.85;;;38.85;;
70150;SDS011;57517;43.562;19.540;2022-12-24T07:47:23;54.33;;;38.78;;
70150;SDS011;57517;43.562;19.540;2022-12-24T07:49:49;54.67;;;37.88;;
70150;SDS011;57517;43.562;19.540;2022-12-24T07:52:15;55.50;;;38.60;;
70150;SDS011;57517;43.562;19.540;2022-12-24T07:54:40;54.97;;;37.15;;
70150;SDS011;57517;43.562;19.540;2022-12-24T07:57:06;50.92;;;36.08;;
70150;SDS011;57517;43.562;19.540;2022-12-24T07:59:32;59.60;;;40.50;;
70150;SDS011;57517;43.562;19.540;2022-12-24T08:01:58;59.78;;;37.75;;
70150;SDS011;57517;43.562;19.540;2022-12-24T08:04:23;53.83;;;37.80;;
70150;SDS011;57517;43.562;19.540;2022-12-24T08:06:49;69.05;;;46.65;;
70150;SDS011;57517;43.562;19.540;2022-12-24T08:09:15;65.05;;;44.20;;
70150;SDS011;57517;43.562;19.540;2022-12-24T08:11:41;62.03;;;43.83;;
70150;SDS011;57517;43.562;19.540;2022-12-24T08:14:06;65.93;;;47.90;;
70150;SDS011;57517;43.562;19.540;2022-12-24T08:16:32;61.85;;;42.00;;
70150;SDS011;57517;43.562;19.540;2022-12-24T08:18:58;54.95;;;38.20;;
70150;SDS011;57517;43.562;19.540;2022-12-24T08:21:24;51.05;;;37.67;;
70150;SDS011;57517;43.562;19.540;2022-12-24T08:23:49;53.92;;;36.40;;
70150;SDS011;57517;43.562;19.540;2022-12-24T08:26:15;50.58;;;38.05;;
70150;SDS011;57517;43.562;19.540;2022-12-24T08:28:41;55.97;;;38.78;;
70150;SDS011;57517;43.562;19.540;2022-12-24T08:31:06;51.45;;;37.25;;
70150;SDS011;57517;43.562;19.540;2022-12-24T08:33:32;47.63;;;32.22;;
70150;SDS011;57517;43.562;19.540;2022-12-24T08:35:59;62.92;;;43.65;;
70150;SDS011;57517;43.562;19.540;2022-12-24T08:38:25;53.30;;;36.50;;
70150;SDS011;57517;43.562;19.540;2022-12-24T08:40:52;59.25;;;41.60;;
70150;SDS011;57517;43.562;19.540;2022-12-24T08:43:18;63.45;;;44.15;;
70150;SDS011;57517;43.562;19.540;2022-12-24T08:45:45;57.55;;;42.35;;
70150;SDS011;57517;43.562;19.540;2022-12-24T08:48:12;78.90;;;58.65;;
70150;SDS011;57517;43.562;19.540;2022-12-24T08:50:38;62.15;;;45.38;;
70150;SDS011;57517;43.562;19.540;2022-12-24T08:53:04;63.30;;;42.30;;
70150;SDS011;57517;43.562;19.540;2022-12-24T08:55:30;56.88;;;42.10;;
70150;SDS011;57517;43.562;19.540;2022-12-24T08:57:56;43.60;;;32.15;;
70150;SDS011;57517;43.562;19.540;2022-12-24T09:00:21;42.72;;;31.83;;
70150;SDS011;57517;43.562;19.540;2022-12-24T09:02:47;48.40;;;33.30;;
70150;SDS011;57517;43.562;19.540;2022-12-24T09:05:13;49.47;;;33.20;;
70150;SDS011;57517;43.562;19.540;2022-12-24T09:07:39;52.58;;;35.15;;
70150;SDS011;57517;43.562;19.540;2022-12-24T09:10:05;52.95;;;39.03;;
70150;SDS011;57517;43.562;19.540;2022-12-24T09:12:35;59.33;;;42.33;;
70150;SDS011;57517;43.562;19.540;2022-12-24T09:15:02;73.07;;;50.95;;
70150;SDS011;57517;43.562;19.540;2022-12-24T09:17:30;78.97;;;54.40;;
70150;SDS011;57517;43.562;19.540;2022-12-24T09:19:55;78.57;;;56.47;;
70150;SDS011;57517;43.562;19.540;2022-12-24T09:22:21;84.65;;;59.13;;
70150;SDS011;57517;43.562;19.540;2022-12-24T09:24:47;124.10;;;82.80;;
70150;SDS011;57517;43.562;19.540;2022-12-24T09:27:13;85.80;;;58.03;;
70150;SDS011;57517;43.562;19.540;2022-12-24T09:29:38;81.75;;;54.83;;
70150;SDS011;57517;43.562;19.540;2022-12-24T09:32:05;74.28;;;55.47;;
70150;SDS011;57517;43.562;19.540;2022-12-24T09:34:31;86.88;;;62.47;;
70150;SDS011;57517;43.562;19.540;2022-12-24T09:36:56;75.20;;;53.92;;
70150;SDS011;57517;43.562;19.540;2022-12-24T09:39:24;66.80;;;49.38;;
70150;SDS011;57517;43.562;19.540;2022-12-24T09:44:40;60.83;;;44.10;;
70150;SDS011;57517;43.562;19.540;2022-12-24T09:47:20;68.80;;;51.45;;
70150;SDS011;57517;43.562;19.540;2022-12-24T09:51:08;76.32;;;53.80;;
70150;SDS011;57517;43.562;19.540;2022-12-24T09:53:03;72.93;;;53.22;;
70150;SDS011;57517;43.562;19.540;2022-12-24T09:55:46;79.30;;;57.53;;
70150;SDS011;57517;43.562;19.540;2022-12-24T09:58:33;83.28;;;59.58;;
70150;SDS011;57517;43.562;19.540;2022-12-24T10:01:04;81.00;;;58.60;;
70150;SDS011;57517;43.562;19.540;2022-12-24T10:03:30;83.75;;;61.53;;
70150;SDS011;57517;43.562;19.540;2022-12-24T10:06:43;85.25;;;58.97;;
70150;SDS011;57517;43.562;19.540;2022-12-24T10:14:20;98.37;;;75.80;;
70150;SDS011;57517;43.562;19.540;2022-12-24T10:20:14;80.22;;;59.65;;
70150;SDS011;57517;43.562;19.540;2022-12-24T10:25:17;73.97;;;54.70;;
70150;SDS011;57517;43.562;19.540;2022-12-24T10:27:51;71.75;;;53.08;;
70150;SDS011;57517;43.562;19.540;2022-12-24T10:30:20;71.55;;;52.25;;
70150;SDS011;57517;43.562;19.540;2022-12-24T10:32:48;74.60;;;54.25;;
70150;SDS011;57517;43.562;19.540;2022-12-24T10:35:35;67.60;;;48.20;;
70150;SDS011;57517;43.562;19.540;2022-12-24T10:38:07;72.55;;;46.67;;
70150;SDS011;57517;43.562;19.540;2022-12-24T10:40:41;66.88;;;50.08;;
70150;SDS011;57517;43.562;19.540;2022-12-24T10:45:38;77.63;;;55.83;;
70150;SDS011;57517;43.562;19.540;2022-12-24T10:48:09;79.28;;;55.85;;
70150;SDS011;57517;43.562;19.540;2022-12-24T10:51:00;75.97;;;56.35;;
70150;SDS011;57517;43.562;19.540;2022-12-24T10:56:30;92.28;;;70.00;;
70150;SDS011;57517;43.562;19.540;2022-12-24T10:58:56;92.40;;;66.85;;
70150;SDS011;57517;43.562;19.540;2022-12-24T11:04:12;67.63;;;50.17;;
70150;SDS011;57517;43.562;19.540;2022-12-24T11:07:23;75.88;;;56.65;;
70150;SDS011;57517;43.562;19.540;2022-12-24T11:09:35;86.97;;;63.78;;
70150;SDS011;57517;43.562;19.540;2022-12-24T11:12:05;80.32;;;59.25;;
70150;SDS011;57517;43.562;19.540;2022-12-24T11:14:43;99.22;;;71.75;;
70150;SDS011;57517;43.562;19.540;2022-12-24T11:17:17;93.40;;;67.10;;
70150;SDS011;57517;43.562;19.540;2022-12-24T11:19:46;87.60;;;63.15;;
70150;SDS011;57517;43.562;19.540;2022-12-24T11:22:18;85.03;;;65.03;;
70150;SDS011;57517;43.562;19.540;2022-12-24T11:24:57;93.28;;;70.95;;
70150;SDS011;57517;43.562;19.540;2022-12-24T11:27:43;92.50;;;67.22;;
70150;SDS011;57517;43.562;19.540;2022-12-24T11:30:26;82.70;;;61.13;;
70150;SDS011;57517;43.562;19.540;2022-12-24T11:35:25;65.68;;;48.33;;
70150;SDS011;57517;43.562;19.540;2022-12-24T11:40:27;66.68;;;48.85;;
70150;SDS011;57517;43.562;19.540;2022-12-24T11:43:00;69.10;;;52.10;;
70150;SDS011;57517;43.562;19.540;2022-12-24T11:45:28;71.75;;;54.70;;
70150;SDS011;57517;43.562;19.540;2022-12-24T11:47:56;66.00;;;50.88;;
70150;SDS011;57517;43.562;19.540;2022-12-24T11:58:26;97.40;;;66.07;;
70150;SDS011;57517;43.562;19.540;2022-12-24T12:00:57;80.25;;;58.55;;
70150;SDS011;57517;43.562;19.540;2022-12-24T12:03:47;92.30;;;58.67;;
70150;SDS011;57517;43.562;19.540;2022-12-24T12:09:13;67.28;;;49.13;;
70150;SDS011;57517;43.562;19.540;2022-12-24T12:11:45;78.25;;;54.55;;
70150;SDS011;57517;43.562;19.540;2022-12-24T12:14:26;95.82;;;64.78;;
70150;SDS011;57517;43.562;19.540;2022-12-24T12:17:15;84.32;;;63.20;;
70150;SDS011;57517;43.562;19.540;2022-12-24T12:20:33;81.65;;;61.58;;
70150;SDS011;57517;43.562;19.540;2022-12-24T12:25:23;82.53;;;61.95;;
70150;SDS011;57517;43.562;19.540;2022-12-24T12:27:54;90.60;;;68.70;;
70150;SDS011;57517;43.562;19.540;2022-12-24T12:30:22;89.40;;;66.93;;
70150;SDS011;57517;43.562;19.540;2022-12-24T12:35:43;98.57;;;75.22;;
70150;SDS011;57517;43.562;19.540;2022-12-24T12:38:15;88.57;;;69.20;;
70150;SDS011;57517;43.562;19.540;2022-12-24T12:46:06;69.53;;;52.53;;
70150;SDS011;57517;43.562;19.540;2022-12-24T12:54:16;86.88;;;60.58;;
70150;SDS011;57517;43.562;19.540;2022-12-24T12:56:50;77.43;;;57.40;;
70150;SDS011;57517;43.562;19.540;2022-12-24T13:01:59;86.63;;;61.75;;
70150;SDS011;57517;43.562;19.540;2022-12-24T13:05:06;79.03;;;58.50;;
70150;SDS011;57517;43.562;19.540;2022-12-24T13:22:17;88.38;;;64.13;;
70150;SDS011;57517;43.562;19.540;2022-12-24T13:24:46;91.78;;;70.47;;
70150;SDS011;57517;43.562;19.540;2022-12-24T13:29:55;107.97;;;83.75;;
70150;SDS011;57517;43.562;19.540;2022-12-24T13:34:52;85.93;;;64.60;;
70150;SDS011;57517;43.562;19.540;2022-12-24T13:37:31;89.03;;;68.18;;
70150;SDS011;57517;43.562;19.540;2022-12-24T13:45:39;97.32;;;71.22;;
70150;SDS011;57517;43.562;19.540;2022-12-24T13:50:35;92.53;;;71.65;;
70150;SDS011;57517;43.562;19.540;2022-12-24T13:53:05;107.68;;;83.90;;
70150;SDS011;57517;43.562;19.540;2022-12-24T13:55:49;107.75;;;87.47;;
70150;SDS011;57517;43.562;19.540;2022-12-24T14:00:59;114.97;;;91.68;;
70150;SDS011;57517;43.562;19.540;2022-12-24T14:06:24;93.10;;;78.10;;
70150;SDS011;57517;43.562;19.540;2022-12-24T14:08:57;96.82;;;74.57;;
70150;SDS011;57517;43.562;19.540;2022-12-24T14:14:37;93.47;;;73.15;;
70150;SDS011;57517;43.562;19.540;2022-12-24T14:17:20;89.57;;;71.78;;
70150;SDS011;57517;43.562;19.540;2022-12-24T14:19:51;89.60;;;68.55;;
70150;SDS011;57517;43.562;19.540;2022-12-24T14:24:57;83.70;;;66.88;;
70150;SDS011;57517;43.562;19.540;2022-12-24T14:30:07;73.80;;;58.33;;
70150;SDS011;57517;43.562;19.540;2022-12-24T14:32:39;75.22;;;56.70;;
70150;SDS011;57517;43.562;19.540;2022-12-24T14:35:14;83.25;;;63.75;;
70150;SDS011;57517;43.562;19.540;2022-12-24T14:37:40;95.10;;;73.32;;
70150;SDS011;57517;43.562;19.540;2022-12-24T14:40:17;89.15;;;73.88;;
70150;SDS011;57517;43.562;19.540;2022-12-24T14:56:19;101.82;;;76.93;;
70150;SDS011;57517;43.562;19.540;2022-12-24T14:58:47;95.28;;;71.47;;
70150;SDS011;57517;43.562;19.540;2022-12-24T15:03:42;81.20;;;65.70;;
70150;SDS011;57517;43.562;19.540;2022-12-24T15:06:09;77.18;;;57.38;;
70150;SDS011;57517;43.562;19.540;2022-12-24T15:08:38;74.20;;;57.92;;
70150;SDS011;57517;43.562;19.540;2022-12-24T15:11:08;86.20;;;65.50;;
70150;SDS011;57517;43.562;19.540;2022-12-24T15:13:40;155.88;;;117.57;;
70150;SDS011;57517;43.562;19.540;2022-12-24T15:16:11;138.80;;;105.20;;
70150;SDS011;57517;43.562;19.540;2022-12-24T15:18:43;128.35;;;101.88;;
70150;SDS011;57517;43.562;19.540;2022-12-24T15:21:20;140.75;;;109.18;;
70150;SDS011;57517;43.562;19.540;2022-12-24T15:23:53;127.00;;;105.38;;
70150;SDS011;57517;43.562;19.540;2022-12-24T15:26:21;132.45;;;109.10;;
70150;SDS011;57517;43.562;19.540;2022-12-24T15:28:49;133.30;;;112.22;;
70150;SDS011;57517;43.562;19.540;2022-12-24T15:31:16;125.55;;;101.78;;
70150;SDS011;57517;43.562;19.540;2022-12-24T15:33:47;119.57;;;98.45;;
70150;SDS011;57517;43.562;19.540;2022-12-24T15:38:59;147.82;;;116.15;;
70150;SDS011;57517;43.562;19.540;2022-12-24T15:41:40;132.75;;;106.60;;
70150;SDS011;57517;43.562;19.540;2022-12-24T15:44:27;119.38;;;92.68;;
70150;SDS011;57517;43.562;19.540;2022-12-24T15:47:00;119.55;;;93.50;;
70150;SDS011;57517;43.562;19.540;2022-12-24T15:49:28;132.48;;;101.93;;
70150;SDS011;57517;43.562;19.540;2022-12-24T15:52:07;137.63;;;106.63;;
70150;SDS011;57517;43.562;19.540;2022-12-24T15:54:35;132.82;;;103.70;;
70150;SDS011;57517;43.562;19.540;2022-12-24T16:00:00;148.70;;;113.30;;
70150;SDS011;57517;43.562;19.540;2022-12-24T16:02:38;140.55;;;110.65;;
70150;SDS011;57517;43.562;19.540;2022-12-24T16:06:08;145.35;;;112.65;;
70150;SDS011;57517;43.562;19.540;2022-12-24T16:10:38;137.70;;;105.28;;
70150;SDS011;57517;43.562;19.540;2022-12-24T16:15:47;128.75;;;100.97;;
70150;SDS011;57517;43.562;19.540;2022-12-24T16:18:23;116.85;;;91.82;;
70150;SDS011;57517;43.562;19.540;2022-12-24T16:20:56;114.25;;;86.00;;
70150;SDS011;57517;43.562;19.540;2022-12-24T16:23:23;114.63;;;88.10;;
70150;SDS011;57517;43.562;19.540;2022-12-24T16:25:54;114.22;;;88.22;;
70150;SDS011;57517;43.562;19.540;2022-12-24T16:28:21;109.03;;;86.63;;
70150;SDS011;57517;43.562;19.540;2022-12-24T16:30:47;106.82;;;81.20;;
70150;SDS011;57517;43.562;19.540;2022-12-24T16:33:14;106.15;;;81.25;;
70150;SDS011;57517;43.562;19.540;2022-12-24T16:35:41;100.35;;;77.40;;
70150;SDS011;57517;43.562;19.540;2022-12-24T16:38:08;104.55;;;78.13;;
70150;SDS011;57517;43.562;19.540;2022-12-24T16:40:34;106.65;;;77.35;;
70150;SDS011;57517;43.562;19.540;2022-12-24T16:42:59;91.55;;;71.78;;
70150;SDS011;57517;43.562;19.540;2022-12-24T16:45:43;100.63;;;78.82;;
70150;SDS011;57517;43.562;19.540;2022-12-24T16:48:15;102.15;;;82.43;;
70150;SDS011;57517;43.562;19.540;2022-12-24T16:50:46;110.72;;;85.93;;
70150;SDS011;57517;43.562;19.540;2022-12-24T16:53:15;129.98;;;102.60;;
70150;SDS011;57517;43.562;19.540;2022-12-24T16:55:42;133.38;;;104.53;;
70150;SDS011;57517;43.562;19.540;2022-12-24T16:58:13;123.20;;;97.43;;
70150;SDS011;57517;43.562;19.540;2022-12-24T17:00:40;119.47;;;95.72;;
70150;SDS011;57517;43.562;19.540;2022-12-24T17:03:06;126.63;;;98.35;;